CYGE

Details ICAO CYGE (YGE)
Name GOLDEN
Region Canada
Timezone America/Edmonton (UTC-6.0)
Plans Departing 2
Arriving 8
Stats Elevation 2,575 ft / 785 m (AMSL)
Location 51.298333° -116.981527°
Runways 1
Magnetic Variation 15.166° E
Sunrise 2018-05-24 11:46:25 UTC / 2018-05-24 05:46:25 Local
Sunset 2018-05-25 03:46:03 UTC / 2018-05-24 21:46:03 Local
Advertisement - Login to hide

Runways

ID Width Length Bearing (true) Bearing (mag) Surface Threshold Offset Overrun Length
14 75 ft / 23 m 4,500 ft / 1,372 m 161.10° 145.93° Asphalt 0 ft / 0 m 0 ft / 0 m
32 75 ft / 23 m 4,500 ft / 1,372 m 341.10° 325.93° Asphalt 0 ft / 0 m 0 ft / 0 m

Map

Weather


0- 5 10 15 20 25 30 35+ Temperature / ° C

Clouds and Precipitation
Forecast for 2018-05-24 12:00 UTC. Updated 3 hours ago

Ground ~20,000 ft ~40,000 ft Winds

METAR

CYGE 241400Z 14003KT 20SM SCT095 SCT130 14/07 A2985 RMK AC3AC1 WND ESTD SLP112 DENSITY ALT 3100FT

TAF

Not found

Frequencies

Unicom 122.80 MHz CTAF/UNICOM
Warning: Do not use this data for real-world aviation or navigation. No guarantee of current accuracy is given.